sensor_id;sensor_type;location;lat;lon;timestamp;P1;durP1;ratioP1;P2;durP2;ratioP2
80625;SDS011;69982;51.758;5.784;2024-02-21T00:01:23;19.30;;;6.80;;
80625;SDS011;69982;51.758;5.784;2024-02-21T00:03:49;22.60;;;7.00;;
80625;SDS011;69982;51.758;5.784;2024-02-21T00:06:16;19.20;;;6.80;;
80625;SDS011;69982;51.758;5.784;2024-02-21T00:08:43;17.80;;;7.10;;
80625;SDS011;69982;51.758;5.784;2024-02-21T00:11:09;21.70;;;6.70;;
80625;SDS011;69982;51.758;5.784;2024-02-21T00:13:36;18.20;;;6.60;;
80625;SDS011;69982;51.758;5.784;2024-02-21T00:16:03;24.70;;;7.50;;
80625;SDS011;69982;51.758;5.784;2024-02-21T00:18:30;13.10;;;5.80;;
80625;SDS011;69982;51.758;5.784;2024-02-21T00:20:56;24.40;;;7.40;;
80625;SDS011;69982;51.758;5.784;2024-02-21T00:23:23;19.60;;;6.10;;
80625;SDS011;69982;51.758;5.784;2024-02-21T00:25:53;16.80;;;6.10;;
80625;SDS011;69982;51.758;5.784;2024-02-21T00:28:27;19.40;;;6.60;;
80625;SDS011;69982;51.758;5.784;2024-02-21T00:31:00;19.40;;;7.00;;
80625;SDS011;69982;51.758;5.784;2024-02-21T00:33:30;17.50;;;7.40;;
80625;SDS011;69982;51.758;5.784;2024-02-21T00:36:03;19.20;;;6.90;;
80625;SDS011;69982;51.758;5.784;2024-02-21T00:38:35;20.40;;;6.70;;
80625;SDS011;69982;51.758;5.784;2024-02-21T00:41:02;26.90;;;7.60;;
80625;SDS011;69982;51.758;5.784;2024-02-21T00:43:41;13.40;;;5.50;;
80625;SDS011;69982;51.758;5.784;2024-02-21T00:46:19;18.70;;;6.40;;
80625;SDS011;69982;51.758;5.784;2024-02-21T00:48:47;17.50;;;5.20;;
80625;SDS011;69982;51.758;5.784;2024-02-21T00:51:27;15.70;;;5.40;;
80625;SDS011;69982;51.758;5.784;2024-02-21T00:54:13;19.20;;;6.70;;
80625;SDS011;69982;51.758;5.784;2024-02-21T00:56:43;15.30;;;6.20;;
80625;SDS011;69982;51.758;5.784;2024-02-21T00:59:15;16.10;;;6.50;;
80625;SDS011;69982;51.758;5.784;2024-02-21T01:01:47;18.80;;;6.30;;
80625;SDS011;69982;51.758;5.784;2024-02-21T01:04:18;18.40;;;7.50;;
80625;SDS011;69982;51.758;5.784;2024-02-21T01:06:53;16.40;;;5.70;;
80625;SDS011;69982;51.758;5.784;2024-02-21T01:09:36;14.40;;;6.60;;
80625;SDS011;69982;51.758;5.784;2024-02-21T01:12:05;21.10;;;6.90;;
80625;SDS011;69982;51.758;5.784;2024-02-21T01:14:40;15.30;;;5.90;;
80625;SDS011;69982;51.758;5.784;2024-02-21T01:17:10;18.40;;;6.60;;
80625;SDS011;69982;51.758;5.784;2024-02-21T01:19:39;18.40;;;6.60;;
80625;SDS011;69982;51.758;5.784;2024-02-21T01:22:06;24.00;;;7.20;;
80625;SDS011;69982;51.758;5.784;2024-02-21T01:24:36;18.30;;;6.50;;
80625;SDS011;69982;51.758;5.784;2024-02-21T01:27:05;18.00;;;6.30;;
80625;SDS011;69982;51.758;5.784;2024-02-21T01:29:37;18.30;;;6.80;;
80625;SDS011;69982;51.758;5.784;2024-02-21T01:32:09;14.70;;;6.10;;
80625;SDS011;69982;51.758;5.784;2024-02-21T01:34:41;17.60;;;5.90;;
80625;SDS011;69982;51.758;5.784;2024-02-21T01:40:03;14.80;;;6.00;;
80625;SDS011;69982;51.758;5.784;2024-02-21T01:42:31;12.90;;;5.10;;
80625;SDS011;69982;51.758;5.784;2024-02-21T01:45:04;20.50;;;6.40;;
80625;SDS011;69982;51.758;5.784;2024-02-21T01:47:50;16.40;;;6.00;;
80625;SDS011;69982;51.758;5.784;2024-02-21T01:50:37;20.00;;;5.90;;
80625;SDS011;69982;51.758;5.784;2024-02-21T01:53:06;19.10;;;6.30;;
80625;SDS011;69982;51.758;5.784;2024-02-21T01:55:47;16.20;;;5.40;;
80625;SDS011;69982;51.758;5.784;2024-02-21T01:58:18;16.70;;;5.30;;
80625;SDS011;69982;51.758;5.784;2024-02-21T02:00:47;23.00;;;6.50;;
80625;SDS011;69982;51.758;5.784;2024-02-21T02:03:33;14.70;;;5.40;;
80625;SDS011;69982;51.758;5.784;2024-02-21T02:06:06;14.60;;;5.30;;
80625;SDS011;69982;51.758;5.784;2024-02-21T02:08:42;13.20;;;4.80;;
80625;SDS011;69982;51.758;5.784;2024-02-21T02:11:49;19.70;;;5.90;;
80625;SDS011;69982;51.758;5.784;2024-02-21T02:14:16;16.40;;;5.60;;
80625;SDS011;69982;51.758;5.784;2024-02-21T02:16:46;17.40;;;5.20;;
80625;SDS011;69982;51.758;5.784;2024-02-21T02:19:16;19.10;;;5.70;;
80625;SDS011;69982;51.758;5.784;2024-02-21T02:21:45;15.00;;;4.80;;
80625;SDS011;69982;51.758;5.784;2024-02-21T02:24:19;18.10;;;4.80;;
80625;SDS011;69982;51.758;5.784;2024-02-21T02:26:47;15.70;;;4.80;;
80625;SDS011;69982;51.758;5.784;2024-02-21T02:29:18;17.10;;;5.20;;
80625;SDS011;69982;51.758;5.784;2024-02-21T02:34:15;15.60;;;4.60;;
80625;SDS011;69982;51.758;5.784;2024-02-21T02:36:43;18.10;;;5.30;;
80625;SDS011;69982;51.758;5.784;2024-02-21T02:39:33;13.70;;;4.10;;
80625;SDS011;69982;51.758;5.784;2024-02-21T02:42:02;10.60;;;3.70;;
80625;SDS011;69982;51.758;5.784;2024-02-21T02:44:29;18.30;;;4.70;;
80625;SDS011;69982;51.758;5.784;2024-02-21T02:46:56;13.30;;;4.30;;
80625;SDS011;69982;51.758;5.784;2024-02-21T02:49:25;14.50;;;3.80;;
80625;SDS011;69982;51.758;5.784;2024-02-21T02:52:11;12.80;;;3.80;;
80625;SDS011;69982;51.758;5.784;2024-02-21T02:55:54;17.40;;;4.20;;
80625;SDS011;69982;51.758;5.784;2024-02-21T02:58:29;15.30;;;3.90;;
80625;SDS011;69982;51.758;5.784;2024-02-21T03:06:58;11.70;;;4.00;;
80625;SDS011;69982;51.758;5.784;2024-02-21T03:09:42;12.70;;;3.90;;
80625;SDS011;69982;51.758;5.784;2024-02-21T03:12:29;12.40;;;3.40;;
80625;SDS011;69982;51.758;5.784;2024-02-21T03:14:56;10.50;;;3.40;;
80625;SDS011;69982;51.758;5.784;2024-02-21T03:17:25;12.10;;;3.80;;
80625;SDS011;69982;51.758;5.784;2024-02-21T03:19:55;13.90;;;4.00;;
80625;SDS011;69982;51.758;5.784;2024-02-21T03:22:28;14.00;;;4.00;;
80625;SDS011;69982;51.758;5.784;2024-02-21T06:01:39;15.20;;;4.80;;
80625;SDS011;69982;51.758;5.784;2024-02-21T06:04:10;13.20;;;4.90;;
80625;SDS011;69982;51.758;5.784;2024-02-21T06:25:32;15.00;;;4.90;;
80625;SDS011;69982;51.758;5.784;2024-02-21T06:27:58;14.40;;;5.00;;
80625;SDS011;69982;51.758;5.784;2024-02-21T06:30:25;19.00;;;5.20;;
80625;SDS011;69982;51.758;5.784;2024-02-21T06:32:53;12.30;;;5.40;;
80625;SDS011;69982;51.758;5.784;2024-02-21T06:35:22;11.40;;;4.10;;
80625;SDS011;69982;51.758;5.784;2024-02-21T06:37:53;14.00;;;4.50;;
80625;SDS011;69982;51.758;5.784;2024-02-21T06:40:21;13.00;;;5.10;;
80625;SDS011;69982;51.758;5.784;2024-02-21T06:42:53;20.10;;;5.30;;
80625;SDS011;69982;51.758;5.784;2024-02-21T06:45:22;14.20;;;5.20;;
80625;SDS011;69982;51.758;5.784;2024-02-21T06:47:50;15.10;;;5.00;;
80625;SDS011;69982;51.758;5.784;2024-02-21T06:50:38;19.30;;;5.00;;
80625;SDS011;69982;51.758;5.784;2024-02-21T06:53:08;16.90;;;5.30;;
80625;SDS011;69982;51.758;5.784;2024-02-21T06:55:39;13.60;;;4.40;;
80625;SDS011;69982;51.758;5.784;2024-02-21T06:58:22;12.10;;;5.10;;
80625;SDS011;69982;51.758;5.784;2024-02-21T07:01:18;15.10;;;4.80;;
80625;SDS011;69982;51.758;5.784;2024-02-21T07:03:55;18.50;;;5.00;;
80625;SDS011;69982;51.758;5.784;2024-02-21T07:06:24;15.80;;;5.00;;
80625;SDS011;69982;51.758;5.784;2024-02-21T07:08:51;15.10;;;5.00;;
80625;SDS011;69982;51.758;5.784;2024-02-21T07:11:22;16.60;;;4.60;;
80625;SDS011;69982;51.758;5.784;2024-02-21T07:13:57;14.70;;;4.60;;
80625;SDS011;69982;51.758;5.784;2024-02-21T07:16:25;14.70;;;5.10;;
80625;SDS011;69982;51.758;5.784;2024-02-21T07:19:13;19.60;;;5.40;;
80625;SDS011;69982;51.758;5.784;2024-02-21T07:21:42;12.60;;;4.20;;
80625;SDS011;69982;51.758;5.784;2024-02-21T07:24:10;15.10;;;5.00;;
80625;SDS011;69982;51.758;5.784;2024-02-21T07:26:43;17.40;;;5.10;;
80625;SDS011;69982;51.758;5.784;2024-02-21T07:29:15;12.60;;;5.40;;
80625;SDS011;69982;51.758;5.784;2024-02-21T07:31:42;15.80;;;5.10;;
80625;SDS011;69982;51.758;5.784;2024-02-21T07:34:28;14.20;;;4.50;;
80625;SDS011;69982;51.758;5.784;2024-02-21T07:36:55;11.10;;;4.60;;
80625;SDS011;69982;51.758;5.784;2024-02-21T07:39:42;16.50;;;5.50;;
80625;SDS011;69982;51.758;5.784;2024-02-21T07:42:16;18.00;;;5.80;;
80625;SDS011;69982;51.758;5.784;2024-02-21T07:44:50;12.00;;;4.60;;
80625;SDS011;69982;51.758;5.784;2024-02-21T07:47:18;15.50;;;5.50;;
80625;SDS011;69982;51.758;5.784;2024-02-21T07:49:48;15.10;;;5.10;;
80625;SDS011;69982;51.758;5.784;2024-02-21T07:52:36;13.20;;;5.30;;
80625;SDS011;69982;51.758;5.784;2024-02-21T07:55:11;16.40;;;5.20;;
80625;SDS011;69982;51.758;5.784;2024-02-21T07:57:42;13.10;;;4.80;;
80625;SDS011;69982;51.758;5.784;2024-02-21T08:00:14;13.70;;;5.30;;
80625;SDS011;69982;51.758;5.784;2024-02-21T08:02:46;10.70;;;4.90;;
80625;SDS011;69982;51.758;5.784;2024-02-21T08:05:36;16.30;;;5.70;;
80625;SDS011;69982;51.758;5.784;2024-02-21T08:08:24;17.40;;;5.10;;
80625;SDS011;69982;51.758;5.784;2024-02-21T08:10:57;12.80;;;4.60;;
80625;SDS011;69982;51.758;5.784;2024-02-21T08:13:26;16.40;;;5.50;;
80625;SDS011;69982;51.758;5.784;2024-02-21T08:15:58;13.90;;;5.20;;
80625;SDS011;69982;51.758;5.784;2024-02-21T08:18:33;16.30;;;5.70;;
80625;SDS011;69982;51.758;5.784;2024-02-21T08:21:11;15.50;;;5.50;;
80625;SDS011;69982;51.758;5.784;2024-02-21T08:23:45;14.90;;;5.50;;
80625;SDS011;69982;51.758;5.784;2024-02-21T08:26:14;10.90;;;4.80;;
80625;SDS011;69982;51.758;5.784;2024-02-21T08:28:51;12.70;;;5.20;;
80625;SDS011;69982;51.758;5.784;2024-02-21T08:31:30;14.70;;;5.60;;
80625;SDS011;69982;51.758;5.784;2024-02-21T08:34:18;12.90;;;4.90;;
80625;SDS011;69982;51.758;5.784;2024-02-21T08:36:50;14.50;;;5.20;;
80625;SDS011;69982;51.758;5.784;2024-02-21T08:39:34;13.60;;;5.00;;
80625;SDS011;69982;51.758;5.784;2024-02-21T08:42:05;14.30;;;4.80;;
80625;SDS011;69982;51.758;5.784;2024-02-21T08:44:42;13.90;;;3.40;;
80625;SDS011;69982;51.758;5.784;2024-02-21T08:47:12;13.90;;;4.70;;
80625;SDS011;69982;51.758;5.784;2024-02-21T08:50:08;11.50;;;4.30;;
80625;SDS011;69982;51.758;5.784;2024-02-21T08:52:42;13.80;;;5.10;;
80625;SDS011;69982;51.758;5.784;2024-02-21T08:57:44;10.10;;;4.00;;
80625;SDS011;69982;51.758;5.784;2024-02-21T09:00:37;12.00;;;4.50;;
80625;SDS011;69982;51.758;5.784;2024-02-21T09:03:03;11.80;;;4.40;;
80625;SDS011;69982;51.758;5.784;2024-02-21T09:05:58;10.10;;;4.20;;
80625;SDS011;69982;51.758;5.784;2024-02-21T09:08:42;10.70;;;4.00;;
80625;SDS011;69982;51.758;5.784;2024-02-21T09:11:33;11.80;;;4.50;;
80625;SDS011;69982;51.758;5.784;2024-02-21T09:14:02;8.10;;;3.80;;
80625;SDS011;69982;51.758;5.784;2024-02-21T09:16:37;9.80;;;4.50;;
80625;SDS011;69982;51.758;5.784;2024-02-21T09:19:07;10.80;;;3.50;;
80625;SDS011;69982;51.758;5.784;2024-02-21T09:21:42;11.90;;;3.80;;
80625;SDS011;69982;51.758;5.784;2024-02-21T09:24:10;10.70;;;3.80;;
80625;SDS011;69982;51.758;5.784;2024-02-21T09:26:50;9.80;;;3.40;;
80625;SDS011;69982;51.758;5.784;2024-02-21T09:29:39;10.40;;;3.70;;
80625;SDS011;69982;51.758;5.784;2024-02-21T09:32:10;9.00;;;3.90;;
80625;SDS011;69982;51.758;5.784;2024-02-21T09:35:04;7.80;;;3.20;;
80625;SDS011;69982;51.758;5.784;2024-02-21T09:37:34;10.80;;;3.80;;
80625;SDS011;69982;51.758;5.784;2024-02-21T09:40:12;8.30;;;3.50;;
80625;SDS011;69982;51.758;5.784;2024-02-21T09:42:43;9.10;;;4.50;;
80625;SDS011;69982;51.758;5.784;2024-02-21T09:45:22;8.40;;;3.40;;
80625;SDS011;69982;51.758;5.784;2024-02-21T09:50:59;9.60;;;3.60;;
80625;SDS011;69982;51.758;5.784;2024-02-21T09:53:28;8.10;;;3.50;;
80625;SDS011;69982;51.758;5.784;2024-02-21T09:56:03;10.00;;;3.30;;
80625;SDS011;69982;51.758;5.784;2024-02-21T09:58:34;8.30;;;4.10;;
80625;SDS011;69982;51.758;5.784;2024-02-21T10:01:18;9.90;;;3.40;;
80625;SDS011;69982;51.758;5.784;2024-02-21T10:03:50;10.10;;;3.80;;
80625;SDS011;69982;51.758;5.784;2024-02-21T10:06:19;7.50;;;3.20;;
80625;SDS011;69982;51.758;5.784;2024-02-21T10:08:51;7.90;;;3.20;;
80625;SDS011;69982;51.758;5.784;2024-02-21T10:11:41;8.50;;;3.40;;
80625;SDS011;69982;51.758;5.784;2024-02-21T10:17:01;7.00;;;3.40;;
80625;SDS011;69982;51.758;5.784;2024-02-21T10:19:45;7.00;;;3.20;;
80625;SDS011;69982;51.758;5.784;2024-02-21T10:22:20;9.30;;;3.50;;
80625;SDS011;69982;51.758;5.784;2024-02-21T10:24:51;8.40;;;3.60;;
80625;SDS011;69982;51.758;5.784;2024-02-21T10:27:38;8.90;;;3.70;;
80625;SDS011;69982;51.758;5.784;2024-02-21T10:30:08;9.90;;;3.60;;
80625;SDS011;69982;51.758;5.784;2024-02-21T10:32:54;10.20;;;3.80;;
80625;SDS011;69982;51.758;5.784;2024-02-21T10:35:34;8.20;;;3.60;;
80625;SDS011;69982;51.758;5.784;2024-02-21T10:38:02;9.80;;;3.90;;
80625;SDS011;69982;51.758;5.784;2024-02-21T10:40:34;11.40;;;4.20;;
80625;SDS011;69982;51.758;5.784;2024-02-21T10:43:04;8.80;;;4.60;;
80625;SDS011;69982;51.758;5.784;2024-02-21T10:48:28;9.10;;;4.20;;
80625;SDS011;69982;51.758;5.784;2024-02-21T10:51:13;7.70;;;3.80;;
80625;SDS011;69982;51.758;5.784;2024-02-21T10:54:11;7.90;;;3.60;;
80625;SDS011;69982;51.758;5.784;2024-02-21T10:56:52;10.40;;;4.10;;
80625;SDS011;69982;51.758;5.784;2024-02-21T10:59:37;11.90;;;4.20;;
80625;SDS011;69982;51.758;5.784;2024-02-21T11:02:04;9.80;;;3.90;;
80625;SDS011;69982;51.758;5.784;2024-02-21T11:05:01;10.60;;;3.90;;
80625;SDS011;69982;51.758;5.784;2024-02-21T11:07:35;9.30;;;4.00;;
80625;SDS011;69982;51.758;5.784;2024-02-21T11:10:20;8.80;;;3.90;;
80625;SDS011;69982;51.758;5.784;2024-02-21T11:13:13;9.60;;;3.20;;
80625;SDS011;69982;51.758;5.784;2024-02-21T11:15:47;6.70;;;3.30;;
80625;SDS011;69982;51.758;5.784;2024-02-21T11:18:22;11.00;;;3.40;;
80625;SDS011;69982;51.758;5.784;2024-02-21T11:20:55;8.70;;;3.00;;
80625;SDS011;69982;51.758;5.784;2024-02-21T11:24:02;9.90;;;3.10;;
80625;SDS011;69982;51.758;5.784;2024-02-21T11:27:09;5.50;;;2.20;;
80625;SDS011;69982;51.758;5.784;2024-02-21T11:29:46;12.40;;;3.40;;
80625;SDS011;69982;51.758;5.784;2024-02-21T11:32:19;8.00;;;3.50;;
80625;SDS011;69982;51.758;5.784;2024-02-21T11:35:07;9.00;;;3.10;;
80625;SDS011;69982;51.758;5.784;2024-02-21T11:37:40;9.20;;;3.70;;
80625;SDS011;69982;51.758;5.784;2024-02-21T11:40:14;10.90;;;3.40;;
80625;SDS011;69982;51.758;5.784;2024-02-21T11:42:42;14.10;;;3.80;;
80625;SDS011;69982;51.758;5.784;2024-02-21T11:45:16;9.30;;;3.30;;
80625;SDS011;69982;51.758;5.784;2024-02-21T11:47:48;10.40;;;3.70;;
80625;SDS011;69982;51.758;5.784;2024-02-21T11:50:16;8.60;;;3.40;;
80625;SDS011;69982;51.758;5.784;2024-02-21T11:52:45;9.30;;;3.10;;
80625;SDS011;69982;51.758;5.784;2024-02-21T11:55:17;8.00;;;3.10;;
80625;SDS011;69982;51.758;5.784;2024-02-21T11:57:55;10.20;;;4.10;;
80625;SDS011;69982;51.758;5.784;2024-02-21T12:01:05;9.70;;;3.00;;
80625;SDS011;69982;51.758;5.784;2024-02-21T12:03:39;9.20;;;3.40;;
80625;SDS011;69982;51.758;5.784;2024-02-21T12:06:16;11.00;;;3.10;;
80625;SDS011;69982;51.758;5.784;2024-02-21T12:08:48;9.50;;;3.10;;
80625;SDS011;69982;51.758;5.784;2024-02-21T12:14:06;8.20;;;3.10;;
80625;SDS011;69982;51.758;5.784;2024-02-21T12:16:38;6.80;;;2.90;;
80625;SDS011;69982;51.758;5.784;2024-02-21T12:19:25;9.70;;;2.50;;
80625;SDS011;69982;51.758;5.784;2024-02-21T12:24:48;6.60;;;2.80;;
80625;SDS011;69982;51.758;5.784;2024-02-21T12:27:32;7.10;;;2.90;;
80625;SDS011;69982;51.758;5.784;2024-02-21T12:30:00;8.40;;;3.70;;
80625;SDS011;69982;51.758;5.784;2024-02-21T12:32:40;9.70;;;2.90;;
80625;SDS011;69982;51.758;5.784;2024-02-21T12:35:09;8.10;;;3.00;;
80625;SDS011;69982;51.758;5.784;2024-02-21T12:37:40;8.10;;;2.80;;
80625;SDS011;69982;51.758;5.784;2024-02-21T12:40:11;8.80;;;2.90;;
80625;SDS011;69982;51.758;5.784;2024-02-21T12:42:45;9.40;;;2.70;;
80625;SDS011;69982;51.758;5.784;2024-02-21T12:45:17;6.40;;;2.00;;
80625;SDS011;69982;51.758;5.784;2024-02-21T12:47:46;7.70;;;2.50;;
80625;SDS011;69982;51.758;5.784;2024-02-21T12:50:22;9.10;;;2.90;;
80625;SDS011;69982;51.758;5.784;2024-02-21T12:55:26;9.60;;;3.00;;
80625;SDS011;69982;51.758;5.784;2024-02-21T12:58:05;6.60;;;2.50;;
80625;SDS011;69982;51.758;5.784;2024-02-21T13:00:52;8.10;;;2.80;;
80625;SDS011;69982;51.758;5.784;2024-02-21T13:03:19;14.60;;;3.10;;
80625;SDS011;69982;51.758;5.784;2024-02-21T13:06:10;8.40;;;2.40;;
80625;SDS011;69982;51.758;5.784;2024-02-21T13:08:37;8.80;;;2.50;;
80625;SDS011;69982;51.758;5.784;2024-02-21T13:11:07;6.00;;;2.40;;
80625;SDS011;69982;51.758;5.784;2024-02-21T13:13:42;10.10;;;2.90;;
80625;SDS011;69982;51.758;5.784;2024-02-21T13:16:12;10.60;;;2.90;;
80625;SDS011;69982;51.758;5.784;2024-02-21T13:18:57;7.10;;;2.60;;
80625;SDS011;69982;51.758;5.784;2024-02-21T13:23:56;10.40;;;3.50;;
80625;SDS011;69982;51.758;5.784;2024-02-21T13:26:29;6.70;;;2.70;;
80625;SDS011;69982;51.758;5.784;2024-02-21T13:28:58;12.20;;;3.00;;
80625;SDS011;69982;51.758;5.784;2024-02-21T13:31:46;12.20;;;3.30;;
80625;SDS011;69982;51.758;5.784;2024-02-21T13:34:23;8.50;;;3.00;;
80625;SDS011;69982;51.758;5.784;2024-02-21T13:36:56;9.10;;;3.20;;
80625;SDS011;69982;51.758;5.784;2024-02-21T13:39:26;7.00;;;2.70;;
80625;SDS011;69982;51.758;5.784;2024-02-21T13:42:08;9.10;;;2.70;;
80625;SDS011;69982;51.758;5.784;2024-02-21T13:44:39;8.40;;;2.50;;
80625;SDS011;69982;51.758;5.784;2024-02-21T13:47:22;7.90;;;2.90;;
80625;SDS011;69982;51.758;5.784;2024-02-21T13:49:53;5.80;;;1.80;;
80625;SDS011;69982;51.758;5.784;2024-02-21T13:52:41;8.00;;;2.10;;
80625;SDS011;69982;51.758;5.784;2024-02-21T13:55:09;8.00;;;2.30;;
80625;SDS011;69982;51.758;5.784;2024-02-21T14:00:07;6.70;;;1.90;;
80625;SDS011;69982;51.758;5.784;2024-02-21T14:02:56;7.20;;;2.40;;
80625;SDS011;69982;51.758;5.784;2024-02-21T14:05:26;8.60;;;1.90;;
80625;SDS011;69982;51.758;5.784;2024-02-21T14:08:15;6.80;;;2.00;;
80625;SDS011;69982;51.758;5.784;2024-02-21T14:11:22;5.70;;;2.20;;
80625;SDS011;69982;51.758;5.784;2024-02-21T14:13:55;7.20;;;1.90;;
80625;SDS011;69982;51.758;5.784;2024-02-21T14:16:25;6.80;;;2.40;;
80625;SDS011;69982;51.758;5.784;2024-02-21T14:18:57;6.80;;;2.10;;
80625;SDS011;69982;51.758;5.784;2024-02-21T14:21:38;9.50;;;2.40;;
80625;SDS011;69982;51.758;5.784;2024-02-21T14:24:07;7.60;;;2.20;;
80625;SDS011;69982;51.758;5.784;2024-02-21T14:26:37;3.60;;;1.40;;
80625;SDS011;69982;51.758;5.784;2024-02-21T14:29:07;7.50;;;2.80;;
80625;SDS011;69982;51.758;5.784;2024-02-21T14:31:39;10.60;;;2.40;;
80625;SDS011;69982;51.758;5.784;2024-02-21T14:34:08;7.20;;;2.20;;
80625;SDS011;69982;51.758;5.784;2024-02-21T14:39:12;9.50;;;2.50;;
80625;SDS011;69982;51.758;5.784;2024-02-21T14:41:46;6.40;;;2.00;;
80625;SDS011;69982;51.758;5.784;2024-02-21T14:44:36;8.20;;;2.10;;
80625;SDS011;69982;51.758;5.784;2024-02-21T14:47:18;9.30;;;2.00;;
80625;SDS011;69982;51.758;5.784;2024-02-21T14:49:54;8.20;;;1.80;;
80625;SDS011;69982;51.758;5.784;2024-02-21T14:52:30;6.70;;;2.00;;
80625;SDS011;69982;51.758;5.784;2024-02-21T14:54:58;5.90;;;2.00;;
80625;SDS011;69982;51.758;5.784;2024-02-21T14:57:41;6.50;;;1.90;;
80625;SDS011;69982;51.758;5.784;2024-02-21T15:00:29;8.30;;;1.80;;
80625;SDS011;69982;51.758;5.784;2024-02-21T15:03:08;5.70;;;1.80;;
80625;SDS011;69982;51.758;5.784;2024-02-21T15:05:59;5.70;;;2.10;;
80625;SDS011;69982;51.758;5.784;2024-02-21T15:08:42;5.70;;;1.80;;
80625;SDS011;69982;51.758;5.784;2024-02-21T15:11:30;6.60;;;1.90;;
80625;SDS011;69982;51.758;5.784;2024-02-21T15:13:58;5.50;;;1.80;;
80625;SDS011;69982;51.758;5.784;2024-02-21T15:16:29;6.20;;;2.00;;
80625;SDS011;69982;51.758;5.784;2024-02-21T15:18:56;7.60;;;2.10;;
80625;SDS011;69982;51.758;5.784;2024-02-21T15:21:31;7.70;;;2.30;;
80625;SDS011;69982;51.758;5.784;2024-02-21T15:23:59;4.90;;;2.10;;
80625;SDS011;69982;51.758;5.784;2024-02-21T15:26:43;6.40;;;2.20;;
80625;SDS011;69982;51.758;5.784;2024-02-21T15:29:11;8.20;;;2.40;;
80625;SDS011;69982;51.758;5.784;2024-02-21T15:31:39;6.50;;;1.90;;
80625;SDS011;69982;51.758;5.784;2024-02-21T15:34:30;4.40;;;2.00;;
80625;SDS011;69982;51.758;5.784;2024-02-21T15:37:08;7.10;;;2.10;;
80625;SDS011;69982;51.758;5.784;2024-02-21T15:40:07;8.40;;;1.40;;
80625;SDS011;69982;51.758;5.784;2024-02-21T15:45:43;6.90;;;2.20;;
80625;SDS011;69982;51.758;5.784;2024-02-21T15:48:56;5.30;;;1.70;;
80625;SDS011;69982;51.758;5.784;2024-02-21T15:51:43;7.80;;;2.30;;
80625;SDS011;69982;51.758;5.784;2024-02-21T15:54:12;5.00;;;1.30;;
80625;SDS011;69982;51.758;5.784;2024-02-21T15:56:46;7.30;;;2.00;;
80625;SDS011;69982;51.758;5.784;2024-02-21T15:59:45;10.70;;;2.90;;
80625;SDS011;69982;51.758;5.784;2024-02-21T16:02:20;6.40;;;1.80;;
80625;SDS011;69982;51.758;5.784;2024-02-21T16:04:51;6.60;;;2.20;;
80625;SDS011;69982;51.758;5.784;2024-02-21T16:07:21;6.20;;;2.30;;
80625;SDS011;69982;51.758;5.784;2024-02-21T16:09:50;10.00;;;2.00;;
80625;SDS011;69982;51.758;5.784;2024-02-21T16:12:27;7.80;;;1.90;;
80625;SDS011;69982;51.758;5.784;2024-02-21T16:15:21;7.00;;;2.30;;
80625;SDS011;69982;51.758;5.784;2024-02-21T16:17:58;8.80;;;2.30;;
80625;SDS011;69982;51.758;5.784;2024-02-21T16:20:49;9.40;;;1.80;;
80625;SDS011;69982;51.758;5.784;2024-02-21T16:23:20;5.10;;;1.80;;
80625;SDS011;69982;51.758;5.784;2024-02-21T16:26:04;6.50;;;2.00;;
80625;SDS011;69982;51.758;5.784;2024-02-21T16:28:41;7.70;;;2.10;;
80625;SDS011;69982;51.758;5.784;2024-02-21T16:31:13;7.00;;;2.10;;
80625;SDS011;69982;51.758;5.784;2024-02-21T16:33:44;4.30;;;1.50;;
80625;SDS011;69982;51.758;5.784;2024-02-21T16:36:24;8.80;;;2.30;;
80625;SDS011;69982;51.758;5.784;2024-02-21T16:38:53;4.80;;;1.80;;
80625;SDS011;69982;51.758;5.784;2024-02-21T16:41:37;5.70;;;2.20;;
80625;SDS011;69982;51.758;5.784;2024-02-21T16:44:55;5.70;;;1.90;;
80625;SDS011;69982;51.758;5.784;2024-02-21T16:47:31;5.80;;;1.50;;
80625;SDS011;69982;51.758;5.784;2024-02-21T16:50:02;6.60;;;2.00;;
80625;SDS011;69982;51.758;5.784;2024-02-21T16:52:31;7.20;;;2.20;;
80625;SDS011;69982;51.758;5.784;2024-02-21T16:55:20;5.20;;;1.60;;
80625;SDS011;69982;51.758;5.784;2024-02-21T16:57:48;6.90;;;2.30;;
80625;SDS011;69982;51.758;5.784;2024-02-21T17:00:21;5.70;;;2.60;;
80625;SDS011;69982;51.758;5.784;2024-02-21T17:02:50;6.10;;;2.00;;
80625;SDS011;69982;51.758;5.784;2024-02-21T17:05:20;9.20;;;2.50;;
80625;SDS011;69982;51.758;5.784;2024-02-21T17:08:31;5.60;;;2.10;;
80625;SDS011;69982;51.758;5.784;2024-02-21T17:10:59;6.90;;;2.20;;
80625;SDS011;69982;51.758;5.784;2024-02-21T17:13:30;10.40;;;2.40;;
80625;SDS011;69982;51.758;5.784;2024-02-21T17:16:20;9.10;;;2.40;;
80625;SDS011;69982;51.758;5.784;2024-02-21T17:18:55;7.00;;;2.40;;
80625;SDS011;69982;51.758;5.784;2024-02-21T17:21:39;6.70;;;2.30;;
80625;SDS011;69982;51.758;5.784;2024-02-21T17:24:13;7.90;;;2.20;;
80625;SDS011;69982;51.758;5.784;2024-02-21T17:26:53;3.70;;;1.20;;
80625;SDS011;69982;51.758;5.784;2024-02-21T17:29:22;8.90;;;2.10;;
80625;SDS011;69982;51.758;5.784;2024-02-21T17:32:08;8.80;;;2.60;;
80625;SDS011;69982;51.758;5.784;2024-02-21T17:34:36;5.20;;;1.90;;
80625;SDS011;69982;51.758;5.784;2024-02-21T17:37:16;4.90;;;1.60;;
80625;SDS011;69982;51.758;5.784;2024-02-21T17:39:44;6.10;;;1.60;;
80625;SDS011;69982;51.758;5.784;2024-02-21T17:42:18;5.90;;;2.00;;
80625;SDS011;69982;51.758;5.784;2024-02-21T17:44:50;6.10;;;2.20;;
80625;SDS011;69982;51.758;5.784;2024-02-21T17:47:18;6.70;;;2.10;;
80625;SDS011;69982;51.758;5.784;2024-02-21T17:49:45;8.10;;;2.00;;
80625;SDS011;69982;51.758;5.784;2024-02-21T17:52:13;8.70;;;2.40;;
80625;SDS011;69982;51.758;5.784;2024-02-21T17:54:46;8.50;;;2.70;;
80625;SDS011;69982;51.758;5.784;2024-02-21T17:57:14;7.20;;;2.50;;
80625;SDS011;69982;51.758;5.784;2024-02-21T17:59:42;6.50;;;2.70;;
80625;SDS011;69982;51.758;5.784;2024-02-21T18:02:11;6.50;;;2.20;;
80625;SDS011;69982;51.758;5.784;2024-02-21T18:04:46;7.10;;;2.50;;
80625;SDS011;69982;51.758;5.784;2024-02-21T18:07:24;8.90;;;2.30;;
80625;SDS011;69982;51.758;5.784;2024-02-21T18:09:58;7.50;;;2.50;;
80625;SDS011;69982;51.758;5.784;2024-02-21T18:12:30;6.10;;;2.20;;
80625;SDS011;69982;51.758;5.784;2024-02-21T18:14:57;7.80;;;2.80;;
80625;SDS011;69982;51.758;5.784;2024-02-21T18:17:32;7.20;;;2.60;;
80625;SDS011;69982;51.758;5.784;2024-02-21T18:19:59;7.40;;;2.00;;
80625;SDS011;69982;51.758;5.784;2024-02-21T18:22:26;10.70;;;2.50;;
80625;SDS011;69982;51.758;5.784;2024-02-21T18:24:54;6.70;;;2.30;;
80625;SDS011;69982;51.758;5.784;2024-02-21T18:27:20;8.90;;;2.50;;
80625;SDS011;69982;51.758;5.784;2024-02-21T18:29:51;6.00;;;2.50;;
80625;SDS011;69982;51.758;5.784;2024-02-21T18:32:19;5.90;;;2.30;;
80625;SDS011;69982;51.758;5.784;2024-02-21T18:34:50;8.40;;;2.80;;
80625;SDS011;69982;51.758;5.784;2024-02-21T18:37:21;5.70;;;2.40;;
80625;SDS011;69982;51.758;5.784;2024-02-21T18:39:53;7.10;;;2.00;;
80625;SDS011;69982;51.758;5.784;2024-02-21T18:42:40;6.00;;;2.10;;
80625;SDS011;69982;51.758;5.784;2024-02-21T18:45:47;7.60;;;3.00;;
80625;SDS011;69982;51.758;5.784;2024-02-21T18:48:16;7.30;;;3.00;;
80625;SDS011;69982;51.758;5.784;2024-02-21T18:50:43;6.90;;;2.70;;
80625;SDS011;69982;51.758;5.784;2024-02-21T18:53:12;10.00;;;3.30;;
80625;SDS011;69982;51.758;5.784;2024-02-21T18:55:49;8.50;;;2.40;;
80625;SDS011;69982;51.758;5.784;2024-02-21T18:58:18;9.00;;;2.90;;
80625;SDS011;69982;51.758;5.784;2024-02-21T19:01:51;7.10;;;2.40;;
80625;SDS011;69982;51.758;5.784;2024-02-21T19:04:22;8.20;;;3.00;;
80625;SDS011;69982;51.758;5.784;2024-02-21T19:06:51;9.70;;;3.20;;
80625;SDS011;69982;51.758;5.784;2024-02-21T19:09:18;8.10;;;2.60;;